sensor_id;sensor_type;location;lat;lon;timestamp;P1;durP1;ratioP1;P2;durP2;ratioP2
17830;SDS011;9040;51.332;12.406;2022-09-28T00:00:06;3.07;;;0.80;;
17830;SDS011;9040;51.332;12.406;2022-09-28T00:02:35;2.37;;;0.90;;
17830;SDS011;9040;51.332;12.406;2022-09-28T00:05:07;12.33;;;0.90;;
17830;SDS011;9040;51.332;12.406;2022-09-28T00:07:36;0.90;;;0.73;;
17830;SDS011;9040;51.332;12.406;2022-09-28T00:10:06;1.30;;;0.90;;
17830;SDS011;9040;51.332;12.406;2022-09-28T00:12:35;3.83;;;1.40;;
17830;SDS011;9040;51.332;12.406;2022-09-28T00:15:04;4.72;;;0.75;;
17830;SDS011;9040;51.332;12.406;2022-09-28T00:17:34;0.90;;;0.80;;
17830;SDS011;9040;51.332;12.406;2022-09-28T00:20:03;1.90;;;0.70;;
17830;SDS011;9040;51.332;12.406;2022-09-28T00:22:35;1.13;;;0.70;;
17830;SDS011;9040;51.332;12.406;2022-09-28T00:25:04;0.83;;;0.70;;
17830;SDS011;9040;51.332;12.406;2022-09-28T00:27:33;2.60;;;0.90;;
17830;SDS011;9040;51.332;12.406;2022-09-28T00:30:02;1.43;;;0.90;;
17830;SDS011;9040;51.332;12.406;2022-09-28T00:32:31;2.23;;;1.00;;
17830;SDS011;9040;51.332;12.406;2022-09-28T00:35:00;1.27;;;0.87;;
17830;SDS011;9040;51.332;12.406;2022-09-28T00:37:29;4.70;;;0.90;;
17830;SDS011;9040;51.332;12.406;2022-09-28T00:40:00;4.93;;;1.30;;
17830;SDS011;9040;51.332;12.406;2022-09-28T00:42:29;1.40;;;0.77;;
17830;SDS011;9040;51.332;12.406;2022-09-28T00:44:57;2.00;;;0.90;;
17830;SDS011;9040;51.332;12.406;2022-09-28T00:47:33;10.53;;;1.00;;
17830;SDS011;9040;51.332;12.406;2022-09-28T00:50:10;1.40;;;0.80;;
17830;SDS011;9040;51.332;12.406;2022-09-28T00:52:46;3.13;;;0.80;;
17830;SDS011;9040;51.332;12.406;2022-09-28T00:55:21;1.20;;;0.80;;
17830;SDS011;9040;51.332;12.406;2022-09-28T00:57:55;2.03;;;0.80;;
17830;SDS011;9040;51.332;12.406;2022-09-28T01:00:27;0.80;;;0.80;;
17830;SDS011;9040;51.332;12.406;2022-09-28T01:02:56;5.20;;;0.80;;
17830;SDS011;9040;51.332;12.406;2022-09-28T01:05:25;4.10;;;0.80;;
17830;SDS011;9040;51.332;12.406;2022-09-28T01:07:54;1.20;;;0.90;;
17830;SDS011;9040;51.332;12.406;2022-09-28T01:10:27;1.20;;;0.70;;
17830;SDS011;9040;51.332;12.406;2022-09-28T01:12:57;1.13;;;0.67;;
17830;SDS011;9040;51.332;12.406;2022-09-28T01:15:26;1.27;;;0.70;;
17830;SDS011;9040;51.332;12.406;2022-09-28T01:18:01;10.10;;;1.07;;
17830;SDS011;9040;51.332;12.406;2022-09-28T01:23:35;1.00;;;0.70;;
17830;SDS011;9040;51.332;12.406;2022-09-28T01:29:22;1.30;;;0.70;;
17830;SDS011;9040;51.332;12.406;2022-09-28T01:35:16;1.67;;;1.07;;
17830;SDS011;9040;51.332;12.406;2022-09-28T01:37:49;2.80;;;1.10;;
17830;SDS011;9040;51.332;12.406;2022-09-28T01:40:23;1.10;;;0.80;;
17830;SDS011;9040;51.332;12.406;2022-09-28T01:42:59;1.00;;;0.80;;
17830;SDS011;9040;51.332;12.406;2022-09-28T01:45:31;0.93;;;0.80;;
17830;SDS011;9040;51.332;12.406;2022-09-28T01:48:05;1.10;;;0.80;;
17830;SDS011;9040;51.332;12.406;2022-09-28T01:50:36;1.10;;;0.87;;
17830;SDS011;9040;51.332;12.406;2022-09-28T01:53:09;3.40;;;0.90;;
17830;SDS011;9040;51.332;12.406;2022-09-28T01:55:43;3.13;;;1.10;;
17830;SDS011;9040;51.332;12.406;2022-09-28T01:58:18;3.23;;;1.00;;
17830;SDS011;9040;51.332;12.406;2022-09-28T02:00:52;2.20;;;1.33;;
17830;SDS011;9040;51.332;12.406;2022-09-28T02:03:28;1.00;;;0.80;;
17830;SDS011;9040;51.332;12.406;2022-09-28T02:06:03;1.20;;;0.80;;
17830;SDS011;9040;51.332;12.406;2022-09-28T02:08:36;2.30;;;1.00;;
17830;SDS011;9040;51.332;12.406;2022-09-28T02:11:12;1.83;;;1.00;;
17830;SDS011;9040;51.332;12.406;2022-09-28T02:13:45;3.40;;;0.97;;
17830;SDS011;9040;51.332;12.406;2022-09-28T02:16:18;1.73;;;1.00;;
17830;SDS011;9040;51.332;12.406;2022-09-28T02:18:51;3.40;;;1.13;;
17830;SDS011;9040;51.332;12.406;2022-09-28T02:21:22;3.07;;;1.30;;
17830;SDS011;9040;51.332;12.406;2022-09-28T02:23:54;3.63;;;1.00;;
17830;SDS011;9040;51.332;12.406;2022-09-28T02:26:26;1.30;;;0.93;;
17830;SDS011;9040;51.332;12.406;2022-09-28T02:29:04;1.43;;;0.83;;
17830;SDS011;9040;51.332;12.406;2022-09-28T02:31:33;3.50;;;1.05;;
17830;SDS011;9040;51.332;12.406;2022-09-28T02:34:02;1.30;;;0.90;;
17830;SDS011;9040;51.332;12.406;2022-09-28T02:36:31;1.77;;;1.10;;
17830;SDS011;9040;51.332;12.406;2022-09-28T02:39:01;5.40;;;1.20;;
17830;SDS011;9040;51.332;12.406;2022-09-28T02:41:35;1.90;;;0.73;;
17830;SDS011;9040;51.332;12.406;2022-09-28T02:44:18;1.03;;;0.90;;
17830;SDS011;9040;51.332;12.406;2022-09-28T02:47:09;2.70;;;1.10;;
17830;SDS011;9040;51.332;12.406;2022-09-28T02:49:50;1.37;;;1.00;;
17830;SDS011;9040;51.332;12.406;2022-09-28T02:52:38;1.10;;;0.70;;
17830;SDS011;9040;51.332;12.406;2022-09-28T02:55:24;3.33;;;1.20;;
17830;SDS011;9040;51.332;12.406;2022-09-28T02:58:10;6.10;;;0.80;;
17830;SDS011;9040;51.332;12.406;2022-09-28T03:00:50;1.43;;;1.27;;
17830;SDS011;9040;51.332;12.406;2022-09-28T03:03:27;1.23;;;0.70;;
17830;SDS011;9040;51.332;12.406;2022-09-28T03:06:02;1.30;;;0.85;;
17830;SDS011;9040;51.332;12.406;2022-09-28T03:08:35;1.37;;;1.27;;
17830;SDS011;9040;51.332;12.406;2022-09-28T03:11:11;2.95;;;1.00;;
17830;SDS011;9040;51.332;12.406;2022-09-28T03:13:46;2.20;;;1.00;;
17830;SDS011;9040;51.332;12.406;2022-09-28T03:16:19;4.40;;;1.93;;
17830;SDS011;9040;51.332;12.406;2022-09-28T03:18:47;2.72;;;1.33;;
17830;SDS011;9040;51.332;12.406;2022-09-28T03:21:16;2.90;;;1.37;;
17830;SDS011;9040;51.332;12.406;2022-09-28T03:23:45;2.50;;;1.67;;
17830;SDS011;9040;51.332;12.406;2022-09-28T03:26:14;1.77;;;0.70;;
17830;SDS011;9040;51.332;12.406;2022-09-28T03:28:43;1.98;;;0.90;;
17830;SDS011;9040;51.332;12.406;2022-09-28T03:31:12;0.90;;;0.70;;
17830;SDS011;9040;51.332;12.406;2022-09-28T03:33:43;4.82;;;0.90;;
17830;SDS011;9040;51.332;12.406;2022-09-28T03:36:12;6.97;;;1.50;;
17830;SDS011;9040;51.332;12.406;2022-09-28T03:38:41;1.57;;;0.93;;
17830;SDS011;9040;51.332;12.406;2022-09-28T03:41:10;1.08;;;0.98;;
17830;SDS011;9040;51.332;12.406;2022-09-28T03:43:38;1.53;;;1.23;;
17830;SDS011;9040;51.332;12.406;2022-09-28T03:46:07;1.73;;;0.63;;
17830;SDS011;9040;51.332;12.406;2022-09-28T03:48:36;3.80;;;0.93;;
17830;SDS011;9040;51.332;12.406;2022-09-28T03:51:08;0.90;;;0.80;;
17830;SDS011;9040;51.332;12.406;2022-09-28T03:53:38;5.13;;;1.50;;
17830;SDS011;9040;51.332;12.406;2022-09-28T03:56:09;2.50;;;1.00;;
17830;SDS011;9040;51.332;12.406;2022-09-28T03:58:39;3.30;;;1.30;;
17830;SDS011;9040;51.332;12.406;2022-09-28T04:01:08;8.73;;;3.85;;
17830;SDS011;9040;51.332;12.406;2022-09-28T04:03:40;7.93;;;0.83;;
17830;SDS011;9040;51.332;12.406;2022-09-28T04:06:11;8.20;;;1.20;;
17830;SDS011;9040;51.332;12.406;2022-09-28T04:08:41;2.53;;;1.47;;
17830;SDS011;9040;51.332;12.406;2022-09-28T04:11:09;3.63;;;1.55;;
17830;SDS011;9040;51.332;12.406;2022-09-28T04:13:38;1.87;;;1.20;;
17830;SDS011;9040;51.332;12.406;2022-09-28T04:16:07;3.03;;;1.30;;
17830;SDS011;9040;51.332;12.406;2022-09-28T04:18:37;4.00;;;1.63;;
17830;SDS011;9040;51.332;12.406;2022-09-28T04:21:08;1.40;;;1.30;;
17830;SDS011;9040;51.332;12.406;2022-09-28T04:23:40;4.35;;;1.20;;
17830;SDS011;9040;51.332;12.406;2022-09-28T04:26:12;1.60;;;1.50;;
17830;SDS011;9040;51.332;12.406;2022-09-28T04:28:43;2.40;;;1.53;;
17830;SDS011;9040;51.332;12.406;2022-09-28T04:31:25;4.73;;;1.47;;
17830;SDS011;9040;51.332;12.406;2022-09-28T04:33:54;1.83;;;1.73;;
17830;SDS011;9040;51.332;12.406;2022-09-28T04:36:26;3.77;;;1.70;;
17830;SDS011;9040;51.332;12.406;2022-09-28T04:38:55;2.90;;;2.30;;
17830;SDS011;9040;51.332;12.406;2022-09-28T04:41:24;11.63;;;1.80;;
17830;SDS011;9040;51.332;12.406;2022-09-28T04:43:53;5.13;;;2.10;;
17830;SDS011;9040;51.332;12.406;2022-09-28T04:46:22;4.60;;;1.50;;
17830;SDS011;9040;51.332;12.406;2022-09-28T04:48:50;4.20;;;2.00;;
17830;SDS011;9040;51.332;12.406;2022-09-28T04:51:19;2.00;;;1.60;;
17830;SDS011;9040;51.332;12.406;2022-09-28T04:53:50;2.07;;;1.90;;
17830;SDS011;9040;51.332;12.406;2022-09-28T04:56:20;5.00;;;1.60;;
17830;SDS011;9040;51.332;12.406;2022-09-28T04:58:48;8.10;;;2.00;;
17830;SDS011;9040;51.332;12.406;2022-09-28T05:01:17;11.20;;;2.27;;
17830;SDS011;9040;51.332;12.406;2022-09-28T05:03:48;2.80;;;2.10;;
17830;SDS011;9040;51.332;12.406;2022-09-28T05:06:17;4.55;;;2.05;;
17830;SDS011;9040;51.332;12.406;2022-09-28T05:08:47;2.67;;;2.47;;
17830;SDS011;9040;51.332;12.406;2022-09-28T05:11:18;3.85;;;2.30;;
17830;SDS011;9040;51.332;12.406;2022-09-28T05:13:47;2.10;;;1.67;;
17830;SDS011;9040;51.332;12.406;2022-09-28T05:16:16;9.17;;;2.23;;
17830;SDS011;9040;51.332;12.406;2022-09-28T05:18:45;4.43;;;2.13;;
17830;SDS011;9040;51.332;12.406;2022-09-28T05:21:14;4.63;;;2.00;;
17830;SDS011;9040;51.332;12.406;2022-09-28T05:23:44;2.30;;;2.00;;
17830;SDS011;9040;51.332;12.406;2022-09-28T05:26:13;2.17;;;1.87;;
17830;SDS011;9040;51.332;12.406;2022-09-28T05:28:45;7.13;;;3.00;;
17830;SDS011;9040;51.332;12.406;2022-09-28T05:31:13;2.63;;;2.00;;
17830;SDS011;9040;51.332;12.406;2022-09-28T05:33:42;4.10;;;2.03;;
17830;SDS011;9040;51.332;12.406;2022-09-28T05:36:11;4.70;;;2.27;;
17830;SDS011;9040;51.332;12.406;2022-09-28T05:38:39;3.72;;;2.58;;
17830;SDS011;9040;51.332;12.406;2022-09-28T05:41:08;9.00;;;2.33;;
17830;SDS011;9040;51.332;12.406;2022-09-28T05:43:37;5.30;;;2.43;;
17830;SDS011;9040;51.332;12.406;2022-09-28T05:46:08;3.17;;;2.33;;
17830;SDS011;9040;51.332;12.406;2022-09-28T05:48:37;4.80;;;2.20;;
17830;SDS011;9040;51.332;12.406;2022-09-28T05:51:05;4.13;;;2.30;;
17830;SDS011;9040;51.332;12.406;2022-09-28T05:53:34;2.60;;;2.00;;
17830;SDS011;9040;51.332;12.406;2022-09-28T05:56:03;4.70;;;2.33;;
17830;SDS011;9040;51.332;12.406;2022-09-28T05:58:32;2.73;;;2.53;;
17830;SDS011;9040;51.332;12.406;2022-09-28T06:01:00;8.90;;;3.00;;
17830;SDS011;9040;51.332;12.406;2022-09-28T06:03:32;8.20;;;2.00;;
17830;SDS011;9040;51.332;12.406;2022-09-28T06:06:01;9.27;;;3.40;;
17830;SDS011;9040;51.332;12.406;2022-09-28T06:08:30;10.77;;;3.23;;
17830;SDS011;9040;51.332;12.406;2022-09-28T06:10:59;3.50;;;2.17;;
17830;SDS011;9040;51.332;12.406;2022-09-28T06:13:28;10.10;;;3.13;;
17830;SDS011;9040;51.332;12.406;2022-09-28T06:15:57;7.13;;;2.73;;
17830;SDS011;9040;51.332;12.406;2022-09-28T06:18:28;4.80;;;2.60;;
17830;SDS011;9040;51.332;12.406;2022-09-28T06:21:00;7.03;;;2.67;;
17830;SDS011;9040;51.332;12.406;2022-09-28T06:23:30;6.13;;;2.17;;
17830;SDS011;9040;51.332;12.406;2022-09-28T06:25:58;3.40;;;2.50;;
17830;SDS011;9040;51.332;12.406;2022-09-28T06:28:27;6.40;;;3.50;;
17830;SDS011;9040;51.332;12.406;2022-09-28T06:30:57;6.47;;;2.90;;
17830;SDS011;9040;51.332;12.406;2022-09-28T06:33:26;4.43;;;2.83;;
17830;SDS011;9040;51.332;12.406;2022-09-28T06:35:58;6.13;;;3.33;;
17830;SDS011;9040;51.332;12.406;2022-09-28T06:38:26;4.33;;;2.43;;
17830;SDS011;9040;51.332;12.406;2022-09-28T06:40:55;4.47;;;3.37;;
17830;SDS011;9040;51.332;12.406;2022-09-28T06:43:24;3.60;;;3.30;;
17830;SDS011;9040;51.332;12.406;2022-09-28T06:45:53;9.13;;;3.80;;
17830;SDS011;9040;51.332;12.406;2022-09-28T06:48:22;5.77;;;3.43;;
17830;SDS011;9040;51.332;12.406;2022-09-28T06:50:51;4.60;;;2.30;;
17830;SDS011;9040;51.332;12.406;2022-09-28T06:53:22;11.90;;;3.30;;
17830;SDS011;9040;51.332;12.406;2022-09-28T06:55:51;9.23;;;3.00;;
17830;SDS011;9040;51.332;12.406;2022-09-28T06:58:20;12.10;;;2.63;;
17830;SDS011;9040;51.332;12.406;2022-09-28T07:00:52;2.30;;;2.10;;
17830;SDS011;9040;51.332;12.406;2022-09-28T07:03:25;10.53;;;2.73;;
17830;SDS011;9040;51.332;12.406;2022-09-28T07:05:54;4.87;;;2.47;;
17830;SDS011;9040;51.332;12.406;2022-09-28T07:08:26;3.20;;;2.50;;
17830;SDS011;9040;51.332;12.406;2022-09-28T07:10:55;7.53;;;2.70;;
17830;SDS011;9040;51.332;12.406;2022-09-28T07:13:25;11.03;;;3.10;;
17830;SDS011;9040;51.332;12.406;2022-09-28T07:15:56;4.33;;;2.60;;
17830;SDS011;9040;51.332;12.406;2022-09-28T07:18:26;5.33;;;2.83;;
17830;SDS011;9040;51.332;12.406;2022-09-28T07:20:55;5.97;;;3.80;;
17830;SDS011;9040;51.332;12.406;2022-09-28T07:23:29;3.40;;;3.07;;
17830;SDS011;9040;51.332;12.406;2022-09-28T07:25:59;4.03;;;3.10;;
17830;SDS011;9040;51.332;12.406;2022-09-28T07:28:31;6.87;;;3.67;;
17830;SDS011;9040;51.332;12.406;2022-09-28T07:30:59;5.20;;;3.20;;
17830;SDS011;9040;51.332;12.406;2022-09-28T07:33:29;7.70;;;3.23;;
17830;SDS011;9040;51.332;12.406;2022-09-28T07:35:58;11.10;;;3.63;;
17830;SDS011;9040;51.332;12.406;2022-09-28T07:38:33;10.50;;;2.83;;
17830;SDS011;9040;51.332;12.406;2022-09-28T07:41:02;5.70;;;2.73;;
17830;SDS011;9040;51.332;12.406;2022-09-28T07:43:38;7.00;;;3.90;;
17830;SDS011;9040;51.332;12.406;2022-09-28T07:46:07;12.20;;;7.00;;
17830;SDS011;9040;51.332;12.406;2022-09-28T07:48:38;15.83;;;8.60;;
17830;SDS011;9040;51.332;12.406;2022-09-28T07:51:09;6.63;;;4.10;;
17830;SDS011;9040;51.332;12.406;2022-09-28T07:53:41;5.13;;;3.90;;
17830;SDS011;9040;51.332;12.406;2022-09-28T07:56:09;5.80;;;3.60;;
17830;SDS011;9040;51.332;12.406;2022-09-28T07:58:41;3.57;;;2.67;;
17830;SDS011;9040;51.332;12.406;2022-09-28T08:01:10;7.07;;;3.70;;
17830;SDS011;9040;51.332;12.406;2022-09-28T08:03:40;4.17;;;2.80;;
17830;SDS011;9040;51.332;12.406;2022-09-28T08:06:12;7.93;;;2.40;;
17830;SDS011;9040;51.332;12.406;2022-09-28T08:08:45;5.03;;;2.90;;
17830;SDS011;9040;51.332;12.406;2022-09-28T08:11:15;14.73;;;4.10;;
17830;SDS011;9040;51.332;12.406;2022-09-28T08:13:44;8.27;;;5.17;;
17830;SDS011;9040;51.332;12.406;2022-09-28T08:16:13;4.23;;;3.57;;
17830;SDS011;9040;51.332;12.406;2022-09-28T08:18:43;8.20;;;3.63;;
17830;SDS011;9040;51.332;12.406;2022-09-28T08:21:11;3.80;;;3.50;;
17830;SDS011;9040;51.332;12.406;2022-09-28T08:23:55;5.57;;;2.40;;
17830;SDS011;9040;51.332;12.406;2022-09-28T08:26:24;3.50;;;2.53;;
17830;SDS011;9040;51.332;12.406;2022-09-28T08:28:53;1.80;;;1.10;;
17830;SDS011;9040;51.332;12.406;2022-09-28T08:31:21;4.00;;;2.47;;
17830;SDS011;9040;51.332;12.406;2022-09-28T08:33:50;3.00;;;2.33;;
17830;SDS011;9040;51.332;12.406;2022-09-28T08:36:19;2.80;;;2.10;;
17830;SDS011;9040;51.332;12.406;2022-09-28T08:38:48;4.78;;;1.15;;
17830;SDS011;9040;51.332;12.406;2022-09-28T08:41:21;10.07;;;3.00;;
17830;SDS011;9040;51.332;12.406;2022-09-28T08:44:04;2.10;;;1.15;;
17830;SDS011;9040;51.332;12.406;2022-09-28T08:46:39;5.05;;;1.17;;
17830;SDS011;9040;51.332;12.406;2022-09-28T08:49:11;1.13;;;0.73;;
17830;SDS011;9040;51.332;12.406;2022-09-28T08:51:46;2.08;;;1.30;;
17830;SDS011;9040;51.332;12.406;2022-09-28T08:54:24;1.88;;;1.25;;
17830;SDS011;9040;51.332;12.406;2022-09-28T08:57:03;3.37;;;0.70;;
17830;SDS011;9040;51.332;12.406;2022-09-28T08:59:42;1.47;;;0.80;;
17830;SDS011;9040;51.332;12.406;2022-09-28T09:02:14;1.17;;;0.85;;
17830;SDS011;9040;51.332;12.406;2022-09-28T09:04:46;2.25;;;0.85;;
17830;SDS011;9040;51.332;12.406;2022-09-28T09:07:20;0.98;;;0.70;;
17830;SDS011;9040;51.332;12.406;2022-09-28T09:10:02;1.08;;;0.80;;
17830;SDS011;9040;51.332;12.406;2022-09-28T09:12:43;4.90;;;0.90;;
17830;SDS011;9040;51.332;12.406;2022-09-28T09:15:20;0.90;;;0.80;;
17830;SDS011;9040;51.332;12.406;2022-09-28T09:18:11;2.77;;;1.00;;
17830;SDS011;9040;51.332;12.406;2022-09-28T09:20:49;2.83;;;1.17;;
17830;SDS011;9040;51.332;12.406;2022-09-28T09:23:23;1.13;;;0.70;;
17830;SDS011;9040;51.332;12.406;2022-09-28T09:26:04;2.63;;;0.87;;
17830;SDS011;9040;51.332;12.406;2022-09-28T09:28:46;0.90;;;0.60;;
17830;SDS011;9040;51.332;12.406;2022-09-28T09:31:30;3.37;;;0.60;;
17830;SDS011;9040;51.332;12.406;2022-09-28T09:34:21;2.20;;;0.90;;
17830;SDS011;9040;51.332;12.406;2022-09-28T09:40:06;1.33;;;0.70;;
17830;SDS011;9040;51.332;12.406;2022-09-28T09:43:02;0.70;;;0.50;;
17830;SDS011;9040;51.332;12.406;2022-09-28T09:45:46;1.93;;;0.80;;
17830;SDS011;9040;51.332;12.406;2022-09-28T09:48:27;1.50;;;0.90;;
17830;SDS011;9040;51.332;12.406;2022-09-28T09:51:02;1.63;;;0.90;;
17830;SDS011;9040;51.332;12.406;2022-09-28T09:53:39;3.97;;;1.70;;
17830;SDS011;9040;51.332;12.406;2022-09-28T09:56:13;3.33;;;1.43;;
17830;SDS011;9040;51.332;12.406;2022-09-28T09:58:45;2.30;;;1.60;;
17830;SDS011;9040;51.332;12.406;2022-09-28T10:01:22;1.77;;;1.10;;
17830;SDS011;9040;51.332;12.406;2022-09-28T10:03:59;1.57;;;0.80;;
17830;SDS011;9040;51.332;12.406;2022-09-28T10:06:30;1.03;;;0.87;;
17830;SDS011;9040;51.332;12.406;2022-09-28T10:09:02;3.23;;;0.90;;
17830;SDS011;9040;51.332;12.406;2022-09-28T10:11:33;2.50;;;1.30;;
17830;SDS011;9040;51.332;12.406;2022-09-28T10:14:07;3.53;;;1.27;;
17830;SDS011;9040;51.332;12.406;2022-09-28T10:16:52;0.80;;;0.70;;
17830;SDS011;9040;51.332;12.406;2022-09-28T10:19:24;2.57;;;0.90;;
17830;SDS011;9040;51.332;12.406;2022-09-28T10:21:58;0.80;;;0.60;;
17830;SDS011;9040;51.332;12.406;2022-09-28T10:24:30;3.20;;;2.23;;
17830;SDS011;9040;51.332;12.406;2022-09-28T10:27:03;0.90;;;0.70;;
17830;SDS011;9040;51.332;12.406;2022-09-28T10:29:36;1.83;;;0.90;;
17830;SDS011;9040;51.332;12.406;2022-09-28T10:32:19;14.80;;;4.73;;
17830;SDS011;9040;51.332;12.406;2022-09-28T10:34:50;2.90;;;1.23;;
17830;SDS011;9040;51.332;12.406;2022-09-28T10:37:19;1.43;;;0.70;;
17830;SDS011;9040;51.332;12.406;2022-09-28T10:39:49;1.10;;;0.87;;
17830;SDS011;9040;51.332;12.406;2022-09-28T10:42:20;1.73;;;0.70;;
17830;SDS011;9040;51.332;12.406;2022-09-28T10:44:53;3.80;;;0.80;;
17830;SDS011;9040;51.332;12.406;2022-09-28T10:47:26;0.97;;;0.80;;
17830;SDS011;9040;51.332;12.406;2022-09-28T10:49:57;2.50;;;1.50;;
17830;SDS011;9040;51.332;12.406;2022-09-28T10:52:30;0.90;;;0.60;;
17830;SDS011;9040;51.332;12.406;2022-09-28T10:55:02;1.67;;;1.13;;
17830;SDS011;9040;51.332;12.406;2022-09-28T10:57:50;5.13;;;0.90;;
17830;SDS011;9040;51.332;12.406;2022-09-28T11:00:29;1.70;;;0.80;;
17830;SDS011;9040;51.332;12.406;2022-09-28T11:03:03;3.40;;;0.93;;
17830;SDS011;9040;51.332;12.406;2022-09-28T11:05:32;1.10;;;0.63;;
17830;SDS011;9040;51.332;12.406;2022-09-28T11:08:02;0.80;;;0.70;;
17830;SDS011;9040;51.332;12.406;2022-09-28T11:10:33;0.80;;;0.63;;
17830;SDS011;9040;51.332;12.406;2022-09-28T11:13:03;1.33;;;1.00;;
17830;SDS011;9040;51.332;12.406;2022-09-28T11:15:37;1.97;;;0.90;;
17830;SDS011;9040;51.332;12.406;2022-09-28T11:18:24;1.20;;;0.80;;
17830;SDS011;9040;51.332;12.406;2022-09-28T11:21:08;1.77;;;0.83;;
17830;SDS011;9040;51.332;12.406;2022-09-28T11:23:41;1.80;;;0.70;;
17830;SDS011;9040;51.332;12.406;2022-09-28T11:26:22;2.30;;;0.80;;
17830;SDS011;9040;51.332;12.406;2022-09-28T11:28:51;4.60;;;0.77;;
17830;SDS011;9040;51.332;12.406;2022-09-28T11:31:24;1.67;;;0.60;;
17830;SDS011;9040;51.332;12.406;2022-09-28T11:34:04;0.90;;;0.80;;
17830;SDS011;9040;51.332;12.406;2022-09-28T11:36:46;0.70;;;0.60;;
17830;SDS011;9040;51.332;12.406;2022-09-28T11:39:33;1.97;;;0.73;;
17830;SDS011;9040;51.332;12.406;2022-09-28T11:42:15;0.80;;;0.70;;
17830;SDS011;9040;51.332;12.406;2022-09-28T11:44:51;1.57;;;0.60;;
17830;SDS011;9040;51.332;12.406;2022-09-28T11:47:41;0.77;;;0.70;;
17830;SDS011;9040;51.332;12.406;2022-09-28T11:50:20;0.90;;;0.70;;
17830;SDS011;9040;51.332;12.406;2022-09-28T11:52:56;1.73;;;0.60;;
17830;SDS011;9040;51.332;12.406;2022-09-28T11:55:32;0.90;;;0.70;;
17830;SDS011;9040;51.332;12.406;2022-09-28T11:58:07;1.00;;;0.53;;
17830;SDS011;9040;51.332;12.406;2022-09-28T12:00:41;1.00;;;0.73;;
17830;SDS011;9040;51.332;12.406;2022-09-28T12:03:15;1.80;;;0.70;;
17830;SDS011;9040;51.332;12.406;2022-09-28T12:05:50;2.63;;;0.67;;
17830;SDS011;9040;51.332;12.406;2022-09-28T12:08:24;0.97;;;0.87;;
17830;SDS011;9040;51.332;12.406;2022-09-28T12:10:56;3.33;;;0.80;;
17830;SDS011;9040;51.332;12.406;2022-09-28T12:13:31;1.83;;;0.80;;
17830;SDS011;9040;51.332;12.406;2022-09-28T12:16:05;0.80;;;0.70;;
17830;SDS011;9040;51.332;12.406;2022-09-28T12:18:40;0.70;;;0.60;;
17830;SDS011;9040;51.332;12.406;2022-09-28T12:21:23;1.23;;;1.13;;
17830;SDS011;9040;51.332;12.406;2022-09-28T12:23:59;0.80;;;0.77;;
17830;SDS011;9040;51.332;12.406;2022-09-28T12:26:33;3.37;;;0.90;;
17830;SDS011;9040;51.332;12.406;2022-09-28T12:29:10;1.10;;;1.00;;
17830;SDS011;9040;51.332;12.406;2022-09-28T12:31:46;1.00;;;0.90;;
17830;SDS011;9040;51.332;12.406;2022-09-28T12:34:25;1.10;;;1.00;;
17830;SDS011;9040;51.332;12.406;2022-09-28T12:37:00;2.83;;;1.37;;
17830;SDS011;9040;51.332;12.406;2022-09-28T12:39:45;2.20;;;1.23;;
17830;SDS011;9040;51.332;12.406;2022-09-28T12:42:27;5.27;;;0.90;;
17830;SDS011;9040;51.332;12.406;2022-09-28T12:45:21;3.47;;;1.17;;
17830;SDS011;9040;51.332;12.406;2022-09-28T12:48:09;4.40;;;1.30;;
17830;SDS011;9040;51.332;12.406;2022-09-28T12:50:54;1.90;;;1.80;;
17830;SDS011;9040;51.332;12.406;2022-09-28T12:53:43;1.63;;;1.10;;
17830;SDS011;9040;51.332;12.406;2022-09-28T12:56:28;0.83;;;0.83;;
17830;SDS011;9040;51.332;12.406;2022-09-28T12:59:07;1.67;;;0.90;;
17830;SDS011;9040;51.332;12.406;2022-09-28T13:01:54;1.63;;;0.90;;
17830;SDS011;9040;51.332;12.406;2022-09-28T13:04:52;1.30;;;1.20;;
17830;SDS011;9040;51.332;12.406;2022-09-28T13:07:31;1.23;;;1.13;;
17830;SDS011;9040;51.332;12.406;2022-09-28T13:10:13;1.17;;;0.73;;
17830;SDS011;9040;51.332;12.406;2022-09-28T13:12:53;3.90;;;0.93;;
17830;SDS011;9040;51.332;12.406;2022-09-28T13:15:39;1.40;;;1.00;;
17830;SDS011;9040;51.332;12.406;2022-09-28T13:18:16;2.10;;;0.90;;
17830;SDS011;9040;51.332;12.406;2022-09-28T13:21:02;1.20;;;0.97;;
17830;SDS011;9040;51.332;12.406;2022-09-28T13:23:37;1.30;;;1.20;;
17830;SDS011;9040;51.332;12.406;2022-09-28T13:26:18;1.30;;;1.10;;
17830;SDS011;9040;51.332;12.406;2022-09-28T13:28:53;1.53;;;1.43;;
17830;SDS011;9040;51.332;12.406;2022-09-28T13:31:27;1.50;;;1.33;;
17830;SDS011;9040;51.332;12.406;2022-09-28T13:33:59;4.00;;;1.63;;
17830;SDS011;9040;51.332;12.406;2022-09-28T13:36:34;1.30;;;1.20;;
17830;SDS011;9040;51.332;12.406;2022-09-28T13:42:08;1.43;;;1.33;;
17830;SDS011;9040;51.332;12.406;2022-09-28T13:44:48;4.30;;;1.70;;
17830;SDS011;9040;51.332;12.406;2022-09-28T13:50:30;2.60;;;1.57;;
17830;SDS011;9040;51.332;12.406;2022-09-28T13:53:11;2.63;;;1.60;;
17830;SDS011;9040;51.332;12.406;2022-09-28T13:55:52;2.57;;;1.17;;
17830;SDS011;9040;51.332;12.406;2022-09-28T13:58:28;2.30;;;1.20;;
17830;SDS011;9040;51.332;12.406;2022-09-28T14:01:02;1.73;;;1.20;;
17830;SDS011;9040;51.332;12.406;2022-09-28T14:03:41;1.60;;;1.40;;
17830;SDS011;9040;51.332;12.406;2022-09-28T14:06:20;1.77;;;1.20;;
17830;SDS011;9040;51.332;12.406;2022-09-28T14:11:58;2.80;;;1.10;;
17830;SDS011;9040;51.332;12.406;2022-09-28T14:14:45;5.00;;;2.47;;
17830;SDS011;9040;51.332;12.406;2022-09-28T14:20:22;1.67;;;1.27;;
17830;SDS011;9040;51.332;12.406;2022-09-28T14:23:00;5.47;;;0.90;;
17830;SDS011;9040;51.332;12.406;2022-09-28T14:25:45;1.30;;;1.00;;
17830;SDS011;9040;51.332;12.406;2022-09-28T14:28:36;1.37;;;0.80;;
17830;SDS011;9040;51.332;12.406;2022-09-28T14:31:16;1.80;;;1.10;;
17830;SDS011;9040;51.332;12.406;2022-09-28T14:33:53;1.63;;;1.17;;
17830;SDS011;9040;51.332;12.406;2022-09-28T14:36:24;1.33;;;1.17;;
17830;SDS011;9040;51.332;12.406;2022-09-28T14:39:18;1.53;;;1.20;;
17830;SDS011;9040;51.332;12.406;2022-09-28T14:42:04;1.53;;;1.30;;
17830;SDS011;9040;51.332;12.406;2022-09-28T14:50:50;0.80;;;0.80;;
17830;SDS011;9040;51.332;12.406;2022-09-28T14:53:20;7.20;;;1.70;;
17830;SDS011;9040;51.332;12.406;2022-09-28T14:55:52;1.00;;;0.90;;
17830;SDS011;9040;51.332;12.406;2022-09-28T14:58:25;2.37;;;1.33;;
17830;SDS011;9040;51.332;12.406;2022-09-28T15:00:59;1.30;;;1.20;;
17830;SDS011;9040;51.332;12.406;2022-09-28T15:03:31;3.30;;;1.80;;
17830;SDS011;9040;51.332;12.406;2022-09-28T15:06:05;2.40;;;1.47;;
17830;SDS011;9040;51.332;12.406;2022-09-28T15:08:35;1.87;;;1.20;;
17830;SDS011;9040;51.332;12.406;2022-09-28T15:11:04;1.53;;;1.27;;
17830;SDS011;9040;51.332;12.406;2022-09-28T15:13:37;2.30;;;1.10;;
17830;SDS011;9040;51.332;12.406;2022-09-28T15:16:07;1.23;;;1.10;;
17830;SDS011;9040;51.332;12.406;2022-09-28T15:18:44;1.10;;;1.00;;
17830;SDS011;9040;51.332;12.406;2022-09-28T15:21:37;1.40;;;1.30;;
17830;SDS011;9040;51.332;12.406;2022-09-28T15:24:23;5.13;;;1.10;;
17830;SDS011;9040;51.332;12.406;2022-09-28T15:26:58;1.90;;;1.70;;
17830;SDS011;9040;51.332;12.406;2022-09-28T15:29:27;8.13;;;1.67;;
17830;SDS011;9040;51.332;12.406;2022-09-28T15:31:58;2.53;;;1.50;;
17830;SDS011;9040;51.332;12.406;2022-09-28T15:34:28;1.60;;;1.30;;
17830;SDS011;9040;51.332;12.406;2022-09-28T15:37:14;5.37;;;1.30;;
17830;SDS011;9040;51.332;12.406;2022-09-28T15:39:46;9.40;;;1.80;;
17830;SDS011;9040;51.332;12.406;2022-09-28T15:42:16;3.33;;;1.20;;
17830;SDS011;9040;51.332;12.406;2022-09-28T15:44:58;1.50;;;1.40;;
17830;SDS011;9040;51.332;12.406;2022-09-28T15:47:33;2.33;;;1.50;;
17830;SDS011;9040;51.332;12.406;2022-09-28T15:50:04;1.63;;;1.53;;
17830;SDS011;9040;51.332;12.406;2022-09-28T15:52:38;2.13;;;1.40;;
17830;SDS011;9040;51.332;12.406;2022-09-28T15:55:16;4.40;;;1.60;;
17830;SDS011;9040;51.332;12.406;2022-09-28T15:57:47;1.53;;;1.43;;